createdAt,value
2018-05-12T00:01:16.641Z,70.20
2018-05-12T00:06:07.687Z,70.22
2018-05-12T00:10:58.749Z,70.45
2018-05-12T00:15:49.785Z,70.49
2018-05-12T00:20:41.532Z,70.48
2018-05-12T00:25:33.362Z,70.43
2018-05-12T00:30:24.383Z,70.40
2018-05-12T00:35:15.471Z,70.51
2018-05-12T00:40:06.477Z,70.53
2018-05-12T00:44:57.509Z,70.46
2018-05-12T00:49:48.539Z,70.48
2018-05-12T00:54:39.598Z,70.59
2018-05-12T00:59:31.362Z,70.68
2018-05-12T01:04:22.388Z,70.68
2018-05-12T01:09:13.469Z,70.73
2018-05-12T01:14:04.499Z,70.74
2018-05-12T01:18:55.548Z,70.73
2018-05-12T01:23:47.325Z,70.79
2018-05-12T01:28:38.442Z,70.85
2018-05-12T01:33:29.464Z,70.89
2018-05-12T01:38:20.524Z,70.94
2018-05-12T01:43:11.540Z,70.97
2018-05-12T01:48:02.569Z,70.95
2018-05-12T01:52:53.626Z,71.04
2018-05-12T01:57:45.448Z,71.08
2018-05-12T02:02:36.471Z,71.07
2018-05-12T02:07:27.487Z,71.07
2018-05-12T02:12:18.598Z,71.09
2018-05-12T02:17:09.662Z,71.19
2018-05-12T02:22:01.434Z,71.19
2018-05-12T02:26:52.460Z,71.25
2018-05-12T02:31:43.555Z,71.37
2018-05-12T02:36:34.606Z,71.31
2018-05-12T02:41:25.635Z,71.41
2018-05-12T02:46:16.651Z,71.53
2018-05-12T02:51:07.655Z,71.78
2018-05-12T02:55:58.735Z,71.83
2018-05-12T03:00:49.801Z,71.69
2018-05-12T03:05:40.853Z,71.63
2018-05-12T03:10:31.883Z,71.82
2018-05-12T03:15:22.928Z,71.92
2018-05-12T03:20:13.937Z,71.98
2018-05-12T03:25:04.960Z,72.14
2018-05-12T03:29:55.969Z,72.21
2018-05-12T03:34:46.989Z,72.36
2018-05-12T03:39:38.023Z,72.47
2018-05-12T03:44:29.051Z,72.64
2018-05-12T03:49:20.087Z,72.75
2018-05-12T03:54:11.137Z,72.86
2018-05-12T03:59:02.919Z,73.08
2018-05-12T04:03:53.979Z,73.24
2018-05-12T04:09:04.568Z,73.34
2018-05-12T04:13:55.652Z,73.42
2018-05-12T04:18:46.676Z,73.44
2018-05-12T04:23:37.688Z,73.44
2018-05-12T04:28:28.720Z,73.50
2018-05-12T04:33:19.817Z,73.54
2018-05-12T04:38:10.872Z,73.45
2018-05-12T04:43:01.914Z,73.47
2018-05-12T04:47:52.941Z,73.49
2018-05-12T04:52:43.955Z,73.54
2018-05-12T04:57:34.989Z,73.59
2018-05-12T05:02:26.057Z,73.59
2018-05-12T05:07:17.096Z,73.56
2018-05-12T05:12:08.121Z,73.65
2018-05-12T05:16:59.180Z,73.78
2018-05-12T05:21:50.255Z,73.91
2018-05-12T05:26:41.400Z,74.01
2018-05-12T05:31:32.596Z,74.08
2018-05-12T05:36:24.421Z,74.17
2018-05-12T05:41:15.449Z,74.17
2018-05-12T05:46:07.231Z,74.21
2018-05-12T05:50:58.309Z,74.13
2018-05-12T05:55:49.315Z,74.15
2018-05-12T06:00:40.364Z,74.10
2018-05-12T06:05:32.135Z,73.97
2018-05-12T06:10:23.178Z,73.83
2018-05-12T06:15:14.231Z,73.71
2018-05-12T06:20:05.240Z,73.42
2018-05-12T06:24:56.280Z,73.03
2018-05-12T06:29:47.309Z,72.90
2018-05-12T06:34:38.319Z,72.69
2018-05-12T06:39:29.456Z,72.18
2018-05-12T06:44:20.498Z,71.69
2018-05-12T06:49:12.280Z,71.23
2018-05-12T06:54:03.317Z,70.25
2018-05-12T06:58:54.365Z,69.73
2018-05-12T07:03:45.376Z,68.95
2018-05-12T07:08:36.425Z,66.43
2018-05-12T07:13:28.194Z,63.98
2018-05-12T07:18:19.237Z,61.25
2018-05-12T07:23:10.297Z,60.57
2018-05-12T07:28:01.324Z,60.34
2018-05-12T07:32:53.101Z,59.40
2018-05-12T07:37:44.112Z,60.05
2018-05-12T07:42:35.195Z,60.64
2018-05-12T07:47:26.282Z,60.74
2018-05-12T07:52:17.368Z,60.44
2018-05-12T07:57:09.136Z,59.81
2018-05-12T08:02:00.212Z,59.31
2018-05-12T08:06:51.282Z,59.36
2018-05-12T08:11:42.319Z,58.98
2018-05-12T08:16:33.359Z,58.57
2018-05-12T08:21:24.398Z,57.76
2018-05-12T08:26:15.439Z,57.01
2018-05-12T08:31:07.223Z,55.90
2018-05-12T08:35:58.251Z,56.26
2018-05-12T08:40:49.270Z,56.32
2018-05-12T08:45:40.415Z,55.42
2018-05-12T08:50:31.450Z,54.97
2018-05-12T08:55:23.999Z,54.50
2018-05-12T09:00:15.050Z,52.62
2018-05-12T09:05:06.077Z,49.79
2018-05-12T09:09:57.861Z,46.35
2018-05-12T09:14:48.899Z,44.35
2018-05-12T09:19:39.989Z,42.49
2018-05-12T09:24:31.022Z,42.49
2018-05-12T09:29:22.095Z,44.05
2018-05-12T09:34:13.115Z,44.25
2018-05-12T09:39:04.123Z,44.19
2018-05-12T09:43:55.250Z,44.89
2018-05-12T09:48:46.306Z,44.57
2018-05-12T09:53:38.079Z,43.27
2018-05-12T09:58:29.143Z,41.76
2018-05-12T10:03:20.277Z,41.59
2018-05-12T10:08:11.300Z,42.79
2018-05-12T10:13:02.345Z,44.01
2018-05-12T10:17:54.126Z,44.89
2018-05-12T10:22:45.214Z,45.24
2018-05-12T10:27:36.283Z,45.11
2018-05-12T10:32:27.342Z,44.74
2018-05-12T10:37:18.382Z,44.13
2018-05-12T10:42:10.303Z,43.67
2018-05-12T10:47:01.377Z,44.39
2018-05-12T10:51:52.414Z,44.34
2018-05-12T10:56:43.469Z,45.41
2018-05-12T11:01:34.535Z,45.48
2018-05-12T11:06:26.283Z,45.56
2018-05-12T11:11:17.350Z,45.85
2018-05-12T11:16:08.473Z,46.33
2018-05-12T11:20:59.406Z,46.46
2018-05-12T11:25:50.461Z,46.67
2018-05-12T11:30:42.348Z,46.50
2018-05-12T11:35:33.423Z,46.35
2018-05-12T11:40:25.227Z,45.96
2018-05-12T11:45:16.265Z,45.67
2018-05-12T11:50:07.375Z,45.62
2018-05-12T11:54:58.389Z,45.74
2018-05-12T11:59:49.430Z,45.79
2018-05-12T12:04:41.220Z,45.88
2018-05-12T12:09:32.356Z,46.12
2018-05-12T12:14:23.405Z,45.90
2018-05-12T12:19:14.466Z,45.53
2018-05-12T12:24:06.230Z,44.96
2018-05-12T12:28:57.356Z,45.15
2018-05-12T12:33:48.386Z,44.37
2018-05-12T12:38:39.424Z,43.82
2018-05-12T12:43:31.597Z,43.75
2018-05-12T12:48:22.702Z,43.31
2018-05-12T12:53:13.755Z,42.36
2018-05-12T12:58:05.665Z,42.45
2018-05-12T13:02:56.699Z,42.26
2018-05-12T13:07:47.720Z,41.92
2018-05-12T13:12:38.722Z,41.63
2018-05-12T13:17:29.758Z,41.76
2018-05-12T13:22:20.785Z,41.58
2018-05-12T13:27:11.864Z,41.70
2018-05-12T13:32:03.643Z,41.57
2018-05-12T13:36:54.723Z,41.38
2018-05-12T13:41:45.808Z,41.30
2018-05-12T13:46:36.831Z,41.49
2018-05-12T13:51:27.874Z,41.28
2018-05-12T13:56:18.895Z,41.30
2018-05-12T14:01:10.200Z,41.52
2018-05-12T14:06:01.211Z,41.43
2018-05-12T14:10:52.270Z,41.52
2018-05-12T14:15:43.317Z,41.55
2018-05-12T14:20:35.113Z,41.55
2018-05-12T14:25:26.228Z,41.63
2018-05-12T14:30:17.322Z,41.50
2018-05-12T14:35:08.377Z,41.04
2018-05-12T14:39:59.401Z,41.15
2018-05-12T14:44:50.465Z,40.96
2018-05-12T14:49:41.527Z,41.59
2018-05-12T14:54:32.631Z,41.58
2018-05-12T14:59:24.396Z,41.36
2018-05-12T15:04:15.451Z,41.58
2018-05-12T15:09:06.526Z,41.54
2018-05-12T15:13:57.579Z,41.65
2018-05-12T15:18:48.592Z,41.53
2018-05-12T15:23:39.670Z,41.57
2018-05-12T15:28:30.704Z,41.66
2018-05-12T15:33:22.474Z,41.30
2018-05-12T15:38:13.505Z,40.53
2018-05-12T15:43:04.553Z,41.15
2018-05-12T15:47:55.584Z,41.28
2018-05-12T15:52:46.609Z,41.41
2018-05-12T15:57:38.382Z,41.37
2018-05-12T16:02:30.257Z,41.69
2018-05-12T16:07:21.287Z,41.88
2018-05-12T16:12:12.382Z,41.97
2018-05-12T16:17:04.140Z,42.39
2018-05-12T16:21:56.678Z,42.35
2018-05-12T16:26:47.721Z,42.48
2018-05-12T16:31:38.854Z,42.39
2018-05-12T16:36:29.814Z,42.34
2018-05-12T16:41:20.869Z,42.63
2018-05-12T16:46:12.664Z,42.66
2018-05-12T16:51:03.777Z,42.89
2018-05-12T16:55:54.905Z,43.44
2018-05-12T17:00:45.933Z,43.65
2018-05-12T17:05:36.993Z,43.66
2018-05-12T17:10:28.771Z,43.62
2018-05-12T17:15:19.809Z,43.88
2018-05-12T17:20:10.849Z,44.09
2018-05-12T17:25:01.862Z,44.32
2018-05-12T17:29:52.938Z,44.37
2018-05-12T17:34:44.671Z,44.68
2018-05-12T17:39:36.453Z,44.87
2018-05-12T17:44:27.505Z,45.13
2018-05-12T17:49:18.592Z,45.54
2018-05-12T17:54:09.619Z,45.91
2018-05-12T17:59:00.685Z,46.14
2018-05-12T18:03:51.707Z,46.28
2018-05-12T18:08:42.755Z,46.57
2018-05-12T18:13:33.769Z,46.66
2018-05-12T18:18:25.527Z,46.90
2018-05-12T18:23:16.628Z,47.32
2018-05-12T18:28:07.636Z,47.43
2018-05-12T18:32:58.689Z,47.67
2018-05-12T18:37:52.133Z,47.86
2018-05-12T18:42:43.270Z,48.05
2018-05-12T18:47:38.286Z,48.32
2018-05-12T18:52:29.359Z,48.67
2018-05-12T18:57:20.427Z,49.06
2018-05-12T19:02:11.463Z,49.43
2018-05-12T19:07:03.219Z,49.68
2018-05-12T19:11:55.001Z,50.04
2018-05-12T19:16:46.031Z,50.28
2018-05-12T19:21:37.075Z,50.64
2018-05-12T19:26:28.276Z,51.02
2018-05-12T19:31:19.313Z,51.33
2018-05-12T19:36:10.337Z,51.52
2018-05-12T19:41:01.377Z,51.91
2018-05-12T19:45:52.387Z,52.22
2018-05-12T19:50:43.441Z,52.56
2018-05-12T19:55:35.249Z,52.90
2018-05-12T20:00:26.279Z,53.25
2018-05-12T20:05:17.337Z,53.48
2018-05-12T20:10:08.410Z,53.75
2018-05-12T20:14:59.471Z,54.09
2018-05-12T20:19:51.199Z,54.36
2018-05-12T20:24:42.229Z,54.69
2018-05-12T20:29:33.967Z,55.05
2018-05-12T20:34:25.747Z,55.19
2018-05-12T20:39:16.821Z,55.53
2018-05-12T20:44:07.879Z,55.84
2018-05-12T20:48:58.941Z,56.17
2018-05-12T20:53:49.971Z,56.43
2018-05-12T20:58:40.986Z,56.69
2018-05-12T21:03:32.011Z,56.91
2018-05-12T21:08:23.046Z,57.22
2018-05-12T21:13:14.047Z,57.52
2018-05-12T21:18:05.080Z,57.71
2018-05-12T21:22:56.125Z,57.81
2018-05-12T21:27:47.143Z,57.99
2018-05-12T21:32:38.158Z,58.00
2018-05-12T21:37:29.175Z,58.15
2018-05-12T21:42:20.253Z,58.29
2018-05-12T21:47:11.275Z,58.40
2018-05-12T21:52:03.066Z,58.55
2018-05-12T21:56:54.127Z,58.63
2018-05-12T22:01:45.916Z,58.65
2018-05-12T22:06:36.941Z,58.76
2018-05-12T22:11:27.983Z,58.84
2018-05-12T22:16:19.036Z,58.91
2018-05-12T22:21:10.843Z,59.05
2018-05-12T22:26:01.878Z,59.10
2018-05-12T22:30:52.919Z,59.18
2018-05-12T22:35:44.014Z,59.29
2018-05-12T22:40:35.031Z,59.54
2018-05-12T22:45:26.080Z,59.75
2018-05-12T22:50:17.101Z,59.91
2018-05-12T22:55:08.123Z,59.99
2018-05-12T22:59:59.167Z,60.16
2018-05-12T23:04:50.954Z,60.26
2018-05-12T23:09:41.977Z,60.38
2018-05-12T23:14:33.005Z,60.51
2018-05-12T23:19:24.047Z,60.61
2018-05-12T23:24:15.210Z,60.72
2018-05-12T23:29:06.220Z,60.85
2018-05-12T23:33:57.999Z,60.94
2018-05-12T23:38:56.093Z,61.11
2018-05-12T23:43:47.187Z,61.32
2018-05-12T23:48:38.976Z,61.47
2018-05-12T23:53:30.016Z,61.74
2018-05-12T23:58:21.858Z,61.83
